createdAt,value
2016-09-02T00:00:52.607Z,0
2016-09-02T00:01:53.339Z,0
2016-09-02T00:02:54.290Z,0
2016-09-02T00:03:54.080Z,0
2016-09-02T00:04:54.217Z,0
2016-09-02T00:05:52.727Z,0
2016-09-02T00:06:53.440Z,0
2016-09-02T00:07:53.511Z,0
2016-09-02T00:08:54.218Z,0
2016-09-02T00:09:53.496Z,0
2016-09-02T00:10:54.947Z,0
2016-09-02T00:11:52.936Z,0
2016-09-02T00:12:54.268Z,0
2016-09-02T00:13:53.587Z,0
2016-09-02T00:14:53.596Z,0
2016-09-02T00:15:52.973Z,0
2016-09-02T00:16:54.373Z,0
2016-09-02T00:17:54.557Z,0
2016-09-02T00:18:53.696Z,0
2016-09-02T00:19:52.991Z,0
2016-09-02T00:20:55.144Z,0
2016-09-02T00:21:53.759Z,0
2016-09-02T00:22:53.788Z,0
2016-09-02T00:23:54.532Z,0
2016-09-02T00:24:53.818Z,0
2016-09-02T00:25:54.539Z,0
2016-09-02T00:26:54.566Z,0
2016-09-02T00:27:53.876Z,0
2016-09-02T00:28:54.618Z,0
2016-09-02T00:29:53.927Z,0
2016-09-02T00:30:55.437Z,0
2016-09-02T00:31:55.365Z,0
2016-09-02T00:32:53.992Z,0
2016-09-02T00:33:55.386Z,0
2016-09-02T00:34:54.847Z,0
2016-09-02T00:35:54.054Z,0
2016-09-02T00:36:54.763Z,0
2016-09-02T00:37:54.154Z,0
2016-09-02T00:38:54.811Z,0
2016-09-02T00:39:54.875Z,0
2016-09-02T00:40:54.853Z,0
2016-09-02T00:41:54.887Z,0
2016-09-02T00:42:55.578Z,0
2016-09-02T00:43:54.201Z,0
2016-09-02T00:44:55.635Z,0
2016-09-02T00:45:54.232Z,0
2016-09-02T00:46:54.958Z,0
2016-09-02T00:47:55.003Z,0
2016-09-02T00:48:54.302Z,0
2016-09-02T00:49:54.322Z,0
2016-09-02T00:50:55.086Z,0
2016-09-02T00:51:55.092Z,0
2016-09-02T00:52:55.925Z,0
2016-09-02T00:53:55.105Z,0
2016-09-02T00:54:54.442Z,0
2016-09-02T00:55:55.164Z,0
2016-09-02T00:56:54.473Z,0
2016-09-02T00:57:54.484Z,0
2016-09-02T00:58:54.584Z,0
2016-09-02T00:59:55.950Z,0
2016-09-02T01:00:55.248Z,0
2016-09-02T01:01:53.863Z,0
2016-09-02T01:02:55.341Z,0
2016-09-02T01:03:54.961Z,0
2016-09-02T01:04:55.346Z,0
2016-09-02T01:05:54.723Z,0
2016-09-02T01:06:55.384Z,0
2016-09-02T01:07:55.468Z,0
2016-09-02T01:08:56.218Z,0
2016-09-02T01:09:54.813Z,0
2016-09-02T01:10:54.833Z,0
2016-09-02T01:11:55.474Z,0
2016-09-02T01:12:55.483Z,0
2016-09-02T01:13:54.819Z,0
2016-09-02T01:14:55.539Z,0
2016-09-02T01:15:54.847Z,0
2016-09-02T01:16:55.596Z,0
2016-09-02T01:17:55.635Z,0
2016-09-02T01:18:54.934Z,0
2016-09-02T01:19:55.632Z,0
2016-09-02T01:20:54.252Z,0
2016-09-02T01:21:55.710Z,0
2016-09-02T01:22:54.273Z,0
2016-09-02T01:23:55.119Z,0
2016-09-02T01:24:55.046Z,0
2016-09-02T01:25:54.433Z,0
2016-09-02T01:26:55.075Z,0
2016-09-02T01:27:55.195Z,0
2016-09-02T01:28:55.122Z,0
2016-09-02T01:29:55.179Z,0
2016-09-02T01:30:54.552Z,0
2016-09-02T01:31:55.239Z,0
2016-09-02T01:32:56.605Z,0
2016-09-02T01:33:55.223Z,0
2016-09-02T01:34:55.223Z,0
2016-09-02T01:35:55.970Z,0
2016-09-02T01:36:55.987Z,0
2016-09-02T01:37:55.989Z,0
2016-09-02T01:38:56.024Z,0
2016-09-02T01:39:55.333Z,0
2016-09-02T01:40:55.459Z,0
2016-09-02T01:41:56.092Z,0
2016-09-02T01:42:56.096Z,0
2016-09-02T01:43:55.411Z,0
2016-09-02T01:44:54.803Z,0
2016-09-02T01:45:54.789Z,0
2016-09-02T01:46:56.194Z,0
2016-09-02T01:47:54.882Z,0
2016-09-02T01:48:55.517Z,0
2016-09-02T01:49:56.349Z,0
2016-09-02T01:50:55.555Z,0
2016-09-02T01:51:56.984Z,0
2016-09-02T01:52:55.610Z,0
2016-09-02T01:53:55.682Z,0
2016-09-02T01:54:56.354Z,0
2016-09-02T01:55:56.393Z,0
2016-09-02T01:56:55.678Z,0
2016-09-02T01:57:56.425Z,0
2016-09-02T01:58:55.722Z,0
2016-09-02T01:59:57.209Z,0
2016-09-02T02:00:56.473Z,0
2016-09-02T02:01:56.514Z,0
2016-09-02T02:02:55.821Z,0
2016-09-02T02:03:56.553Z,0
2016-09-02T02:04:55.849Z,0
2016-09-02T02:05:55.162Z,0
2016-09-02T02:06:55.888Z,0
2016-09-02T02:07:57.321Z,0
2016-09-02T02:08:56.634Z,0
2016-09-02T02:09:57.374Z,0
2016-09-02T02:10:56.661Z,0
2016-09-02T02:11:55.994Z,0
2016-09-02T02:12:56.762Z,0
2016-09-02T02:13:56.065Z,0
2016-09-02T02:14:56.043Z,0
2016-09-02T02:15:56.188Z,0
2016-09-02T02:16:55.380Z,0
2016-09-02T02:17:56.130Z,0
2016-09-02T02:18:56.124Z,0
2016-09-02T02:19:57.655Z,0
2016-09-02T02:20:56.882Z,0
2016-09-02T02:21:57.638Z,0
2016-09-02T02:22:56.908Z,0
2016-09-02T02:23:56.221Z,0
2016-09-02T02:24:57.662Z,0
2016-09-02T02:25:56.973Z,0
2016-09-02T02:26:56.304Z,0
2016-09-02T02:27:57.021Z,0
2016-09-02T02:28:57.734Z,0
2016-09-02T02:29:57.057Z,0
2016-09-02T02:30:57.767Z,0
2016-09-02T02:31:57.790Z,0
2016-09-02T02:32:55.696Z,0
2016-09-02T02:33:55.711Z,0
2016-09-02T02:34:55.733Z,0
2016-09-02T02:35:56.473Z,0
2016-09-02T02:36:56.473Z,0
2016-09-02T02:37:56.547Z,0
2016-09-02T02:38:58.024Z,0
2016-09-02T02:39:56.592Z,0
2016-09-02T02:40:57.983Z,0
2016-09-02T02:41:57.282Z,0
2016-09-02T02:42:57.297Z,0
2016-09-02T02:43:56.621Z,0
2016-09-02T02:44:56.642Z,0
2016-09-02T02:45:57.453Z,0
2016-09-02T02:46:56.696Z,0
2016-09-02T02:47:58.167Z,0
2016-09-02T02:48:56.752Z,0
2016-09-02T02:49:57.460Z,0
2016-09-02T02:50:56.757Z,0
2016-09-02T02:51:56.788Z,0
2016-09-02T02:52:56.843Z,0
2016-09-02T02:53:57.521Z,0
2016-09-02T02:54:57.540Z,0
2016-09-02T02:55:56.850Z,0
2016-09-02T02:56:56.875Z,0
2016-09-02T02:57:56.903Z,0
2016-09-02T02:58:57.007Z,0
2016-09-02T02:59:57.643Z,0
2016-09-02T03:00:57.751Z,0
2016-09-02T03:01:57.673Z,0
2016-09-02T03:02:57.760Z,0
2016-09-02T03:03:57.016Z,0
2016-09-02T03:04:57.032Z,0
2016-09-02T03:05:57.302Z,0
2016-09-02T03:06:57.071Z,0
2016-09-02T03:07:57.795Z,0
2016-09-02T03:08:58.519Z,0
2016-09-02T03:09:57.176Z,0
2016-09-02T03:10:57.845Z,0
2016-09-02T03:11:57.953Z,0
2016-09-02T03:12:56.492Z,0
2016-09-02T03:13:58.612Z,0
2016-09-02T03:14:57.231Z,0
2016-09-02T03:15:57.988Z,0
2016-09-02T03:16:57.967Z,0
2016-09-02T03:17:57.276Z,0
2016-09-02T03:18:57.413Z,0
2016-09-02T03:19:58.027Z,0
2016-09-02T03:20:57.363Z,0
2016-09-02T03:21:58.074Z,0
2016-09-02T03:22:58.261Z,0
2016-09-02T03:23:57.411Z,0
2016-09-02T03:24:58.961Z,0
2016-09-02T03:25:57.436Z,0
2016-09-02T03:26:58.253Z,0
2016-09-02T03:27:56.882Z,0
2016-09-02T03:28:58.203Z,0
2016-09-02T03:29:58.224Z,0
2016-09-02T03:30:57.536Z,0
2016-09-02T03:31:58.271Z,0
2016-09-02T03:32:58.389Z,0
2016-09-02T03:33:57.612Z,0
2016-09-02T03:34:57.609Z,0
2016-09-02T03:35:57.726Z,0
2016-09-02T03:36:57.854Z,0
2016-09-02T03:38:29.412Z,0
2016-09-02T03:38:58.503Z,0
2016-09-02T03:39:57.714Z,0
2016-09-02T03:40:58.551Z,0
2016-09-02T03:41:58.542Z,0
2016-09-02T03:42:57.887Z,0
2016-09-02T03:43:57.825Z,0
2016-09-02T03:44:59.223Z,0
2016-09-02T03:45:57.884Z,0
2016-09-02T03:46:57.172Z,0
2016-09-02T03:47:58.073Z,0
2016-09-02T03:48:58.593Z,0
2016-09-02T03:49:57.293Z,0
2016-09-02T03:50:58.636Z,0
2016-09-02T03:51:58.631Z,0
2016-09-02T03:52:58.682Z,0
2016-09-02T03:53:57.300Z,0
2016-09-02T03:54:57.304Z,0
2016-09-02T03:55:58.020Z,0
2016-09-02T03:56:58.780Z,0
2016-09-02T03:57:58.137Z,4
2016-09-02T03:58:58.792Z,4
2016-09-02T03:59:58.858Z,0
2016-09-02T04:00:57.425Z,4
2016-09-02T04:01:58.151Z,4
2016-09-02T04:02:58.162Z,0
2016-09-02T04:03:58.234Z,4
2016-09-02T04:04:58.203Z,8
2016-09-02T04:05:58.933Z,8
2016-09-02T04:06:58.312Z,4
2016-09-02T04:07:58.980Z,8
2016-09-02T04:08:59.113Z,8
2016-09-02T04:09:59.018Z,12
2016-09-02T04:10:59.031Z,12
2016-09-02T04:11:58.337Z,12
2016-09-02T04:12:59.834Z,16
2016-09-02T04:13:57.664Z,20
2016-09-02T04:14:58.384Z,24
2016-09-02T04:15:58.414Z,28
2016-09-02T04:16:58.442Z,32
2016-09-02T04:17:58.479Z,36
2016-09-02T04:18:58.483Z,44
2016-09-02T04:19:59.225Z,48
2016-09-02T04:20:59.219Z,56
2016-09-02T04:21:57.822Z,64
2016-09-02T04:22:57.945Z,72
2016-09-02T04:23:57.868Z,84
2016-09-02T04:25:00.007Z,96
2016-09-02T04:25:59.323Z,112
2016-09-02T04:26:58.635Z,124
2016-09-02T04:28:00.071Z,140
2016-09-02T04:28:58.739Z,160
2016-09-02T04:29:58.124Z,180
2016-09-02T04:30:58.163Z,200
2016-09-02T04:31:59.449Z,224
2016-09-02T04:32:59.462Z,248
2016-09-02T04:33:59.480Z,272
2016-09-02T04:34:59.502Z,300
2016-09-02T04:36:00.222Z,332
2016-09-02T04:36:59.589Z,356
2016-09-02T04:37:59.564Z,380
2016-09-02T04:39:00.399Z,412
2016-09-02T04:39:59.598Z,444
2016-09-02T04:40:58.952Z,484
2016-09-02T04:41:59.151Z,540
2016-09-02T04:42:59.011Z,604
2016-09-02T04:43:58.965Z,684
2016-09-02T04:44:59.719Z,764
2016-09-02T04:45:59.712Z,848
2016-09-02T04:46:59.051Z,924
2016-09-02T04:47:59.183Z,992
2016-09-02T04:48:59.761Z,1052
2016-09-02T04:49:59.923Z,1108
2016-09-02T04:50:58.483Z,1156
2016-09-02T04:52:00.616Z,1236
2016-09-02T04:52:59.162Z,1332
2016-09-02T04:53:59.170Z,1440
2016-09-02T04:54:59.904Z,1544
2016-09-02T04:55:59.214Z,1644
2016-09-02T04:56:59.241Z,1728
2016-09-02T04:57:59.963Z,1768
2016-09-02T04:58:59.274Z,1816
2016-09-02T04:59:59.985Z,1932
2016-09-02T05:01:00.035Z,2068
2016-09-02T05:01:59.316Z,2160
2016-09-02T05:03:00.986Z,2144
2016-09-02T05:03:59.401Z,2084
2016-09-02T05:05:00.243Z,2040
2016-09-02T05:05:59.424Z,2040
2016-09-02T05:06:59.434Z,2084
2016-09-02T05:07:59.444Z,2160
2016-09-02T05:08:59.464Z,2272
2016-09-02T05:09:59.587Z,2392
2016-09-02T05:11:00.213Z,2488
2016-09-02T05:12:00.212Z,2528
2016-09-02T05:12:59.562Z,2504
2016-09-02T05:14:00.292Z,2408
2016-09-02T05:15:00.305Z,2296
2016-09-02T05:16:00.510Z,2168
2016-09-02T05:17:01.041Z,2020
2016-09-02T05:18:00.372Z,1920
2016-09-02T05:19:00.383Z,1920
2016-09-02T05:19:59.696Z,1996
2016-09-02T05:21:01.122Z,2144
2016-09-02T05:21:59.754Z,2264
2016-09-02T05:22:59.741Z,2356
2016-09-02T05:23:59.776Z,2476
2016-09-02T05:24:59.866Z,2652
2016-09-02T05:25:59.111Z,2952
2016-09-02T05:26:59.841Z,3324
2016-09-02T05:27:59.853Z,3636
2016-09-02T05:29:00.722Z,3828
2016-09-02T05:29:59.902Z,3944
2016-09-02T05:30:59.923Z,4044
2016-09-02T05:32:00.660Z,4112
2016-09-02T05:33:01.394Z,4148
2016-09-02T05:34:00.682Z,4180
2016-09-02T05:35:00.710Z,4220
2016-09-02T05:36:00.044Z,4252
2016-09-02T05:37:00.775Z,4256
2016-09-02T05:38:01.479Z,4224
2016-09-02T05:39:00.806Z,4176
2016-09-02T05:40:00.895Z,4144
2016-09-02T05:41:01.563Z,4200
2016-09-02T05:42:01.581Z,4320
2016-09-02T05:43:00.235Z,4400
2016-09-02T05:44:01.218Z,4396
2016-09-02T05:45:00.917Z,4296
2016-09-02T05:46:00.339Z,4084
2016-09-02T05:47:00.254Z,3804
2016-09-02T05:48:00.292Z,3500
2016-09-02T05:49:01.020Z,3340
2016-09-02T05:50:00.344Z,3316
2016-09-02T05:51:01.057Z,3388
2016-09-02T05:52:00.457Z,3452
2016-09-02T05:52:59.680Z,3448
2016-09-02T05:54:01.131Z,3424
2016-09-02T05:54:59.721Z,4324
2016-09-02T05:56:00.502Z,3496
2016-09-02T05:57:01.260Z,7280
2016-09-02T05:58:01.220Z,4356
2016-09-02T05:59:01.222Z,3892
2016-09-02T06:00:01.373Z,4588
2016-09-02T06:01:00.580Z,5544
2016-09-02T06:02:01.346Z,6656
2016-09-02T06:03:01.320Z,6240
2016-09-02T06:04:00.636Z,6160
2016-09-02T06:04:59.985Z,6340
2016-09-02T06:06:01.965Z,6556
2016-09-02T06:07:00.691Z,6772
2016-09-02T06:08:01.446Z,6832
2016-09-02T06:09:00.844Z,6872
2016-09-02T06:10:01.733Z,6860
2016-09-02T06:11:00.809Z,6800
2016-09-02T06:12:02.345Z,6540
2016-09-02T06:13:00.830Z,6200
2016-09-02T06:14:01.741Z,5904
2016-09-02T06:15:01.743Z,5656
2016-09-02T06:16:00.908Z,5532
2016-09-02T06:17:02.345Z,5488
2016-09-02T06:18:01.039Z,5488
2016-09-02T06:19:00.952Z,5724
2016-09-02T06:20:02.436Z,6972
2016-09-02T06:21:00.325Z,6088
2016-09-02T06:22:01.755Z,6516
2016-09-02T06:23:01.130Z,6872
2016-09-02T06:24:01.162Z,12304
2016-09-02T06:25:00.405Z,7252
2016-09-02T06:26:01.255Z,7892
2016-09-02T06:27:02.577Z,8428
2016-09-02T06:28:01.287Z,9768
2016-09-02T06:29:01.917Z,11340
2016-09-02T06:30:01.942Z,22880
2016-09-02T06:31:01.265Z,17152
2016-09-02T06:32:01.268Z,17600
2016-09-02T06:33:02.002Z,12564
2016-09-02T06:34:01.332Z,15680
2016-09-02T06:35:02.294Z,17728
2016-09-02T06:36:01.388Z,16160
2016-09-02T06:37:00.744Z,13668
2016-09-02T06:38:02.153Z,14220
2016-09-02T06:39:00.885Z,20608
2016-09-02T06:40:01.482Z,13924
2016-09-02T06:41:02.259Z,16096
2016-09-02T06:42:02.233Z,11552
2016-09-02T06:43:02.343Z,12240
2016-09-02T06:44:03.040Z,24928
2016-09-02T06:45:00.903Z,23936
2016-09-02T06:46:01.934Z,19232
2016-09-02T06:47:03.081Z,15108
2016-09-02T06:48:01.764Z,18112
2016-09-02T06:49:01.815Z,18496
2016-09-02T06:50:01.906Z,19968
2016-09-02T06:51:01.833Z,15584
2016-09-02T06:52:01.193Z,17856
2016-09-02T06:53:02.025Z,13932
2016-09-02T06:54:02.589Z,18240
2016-09-02T06:55:03.303Z,19040
2016-09-02T06:56:01.892Z,17792
2016-09-02T06:57:01.936Z,21088
2016-09-02T06:58:01.253Z,20256
2016-09-02T06:59:01.995Z,20800
2016-09-02T07:00:02.091Z,23936
2016-09-02T07:01:01.446Z,23200
2016-09-02T07:02:02.789Z,23424
2016-09-02T07:03:01.436Z,24736
2016-09-02T07:04:02.139Z,26816
2016-09-02T07:05:02.155Z,31488
2016-09-02T07:06:01.470Z,38336
2016-09-02T07:07:01.527Z,39296
2016-09-02T07:08:03.644Z,35744
2016-09-02T07:09:02.971Z,40352
2016-09-02T07:10:03.006Z,33440
2016-09-02T07:11:03.734Z,22816
2016-09-02T07:12:02.423Z,24000
2016-09-02T07:13:01.703Z,33856
2016-09-02T07:14:02.415Z,34176
2016-09-02T07:15:03.149Z,30656
2016-09-02T07:16:03.202Z,26528
2016-09-02T07:17:02.517Z,27712
2016-09-02T07:18:03.239Z,28672
2016-09-02T07:19:02.558Z,22688
2016-09-02T07:20:03.295Z,21376
2016-09-02T07:21:03.443Z,22976
2016-09-02T07:22:03.373Z,22720
2016-09-02T07:23:02.686Z,25408
2016-09-02T07:24:03.430Z,24000
2016-09-02T07:25:02.032Z,22016
2016-09-02T07:26:02.815Z,26400
2016-09-02T07:27:03.486Z,22784
2016-09-02T07:28:02.126Z,19456
2016-09-02T07:29:02.864Z,17440
2016-09-02T07:30:02.876Z,16320
2016-09-02T07:31:03.604Z,23328
2016-09-02T07:32:02.952Z,18912
2016-09-02T07:33:03.006Z,16384
2016-09-02T07:34:03.009Z,14284
2016-09-02T07:35:03.813Z,18816
2016-09-02T07:36:03.068Z,31520
2016-09-02T07:37:02.433Z,34208
2016-09-02T07:38:03.840Z,20480
2016-09-02T07:39:02.484Z,19520
2016-09-02T07:40:04.593Z,12256
2016-09-02T07:41:03.231Z,11980
2016-09-02T07:42:02.523Z,11952
2016-09-02T07:43:04.005Z,11860
2016-09-02T07:44:03.282Z,12284
2016-09-02T07:45:03.397Z,14928
2016-09-02T07:46:04.074Z,16128
2016-09-02T07:47:03.474Z,16256
2016-09-02T07:48:04.156Z,11284
2016-09-02T07:49:03.429Z,11008
2016-09-02T07:50:04.872Z,11084
2016-09-02T07:51:03.495Z,11468
2016-09-02T07:52:04.236Z,12228
2016-09-02T07:53:04.276Z,13172
2016-09-02T07:54:04.327Z,13888
2016-09-02T07:55:03.597Z,14632
2016-09-02T07:56:04.329Z,15712
2016-09-02T07:57:03.713Z,16448
2016-09-02T07:58:04.404Z,16896
2016-09-02T07:59:04.421Z,16832
2016-09-02T08:00:04.451Z,16320
2016-09-02T08:01:05.224Z,15488
2016-09-02T08:02:04.505Z,14600
2016-09-02T08:03:04.613Z,14160
2016-09-02T08:04:04.573Z,13544
2016-09-02T08:05:03.178Z,13136
2016-09-02T08:06:03.897Z,12740
2016-09-02T08:07:03.932Z,12452
2016-09-02T08:08:03.946Z,12352
2016-09-02T08:09:05.392Z,12276
2016-09-02T08:10:04.018Z,12128
2016-09-02T08:11:04.022Z,11912
2016-09-02T08:12:04.772Z,12040
2016-09-02T08:13:04.803Z,12340
2016-09-02T08:14:04.137Z,12636
2016-09-02T08:15:04.874Z,12868
2016-09-02T08:16:04.928Z,13236
2016-09-02T08:17:04.192Z,13252
2016-09-02T08:18:04.211Z,13300
2016-09-02T08:19:05.664Z,13316
2016-09-02T08:20:04.976Z,13248
2016-09-02T08:21:05.074Z,13092
2016-09-02T08:22:04.484Z,12396
2016-09-02T08:23:05.933Z,12112
2016-09-02T08:24:04.637Z,12028
2016-09-02T08:25:04.522Z,12048
2016-09-02T08:26:04.620Z,12080
2016-09-02T08:27:05.232Z,12072
2016-09-02T08:28:05.350Z,11928
2016-09-02T08:29:04.605Z,12044
2016-09-02T08:30:04.613Z,12752
2016-09-02T08:31:05.292Z,13796
2016-09-02T08:32:05.401Z,14088
2016-09-02T08:33:05.342Z,13816
2016-09-02T08:34:03.965Z,13436
2016-09-02T08:35:05.037Z,13104
2016-09-02T08:36:05.428Z,12840
2016-09-02T08:37:04.818Z,12956
2016-09-02T08:38:05.544Z,13084
2016-09-02T08:39:05.597Z,13284
2016-09-02T08:40:05.595Z,13292
2016-09-02T08:41:04.861Z,13240
2016-09-02T08:42:04.884Z,13392
2016-09-02T08:43:04.200Z,13540
2016-09-02T08:44:05.727Z,13616
2016-09-02T08:45:05.916Z,13628
2016-09-02T08:46:05.688Z,13576
2016-09-02T08:47:05.722Z,12936
2016-09-02T08:48:05.753Z,12448
2016-09-02T08:49:05.812Z,12564
2016-09-02T08:50:06.523Z,13180
2016-09-02T08:51:05.133Z,14720
2016-09-02T08:52:05.845Z,15172
2016-09-02T08:53:04.475Z,14996
2016-09-02T08:54:06.713Z,14268
2016-09-02T08:55:05.943Z,14564
2016-09-02T08:56:05.282Z,15060
2016-09-02T08:57:05.292Z,15708
2016-09-02T08:58:05.322Z,16256
2016-09-02T08:59:06.072Z,16032
2016-09-02T09:00:04.662Z,15292
2016-09-02T09:01:06.828Z,15968
2016-09-02T09:02:06.137Z,16896
2016-09-02T09:03:05.472Z,17728
2016-09-02T09:04:06.181Z,17632
2016-09-02T09:05:07.117Z,18304
2016-09-02T09:06:06.255Z,18816
2016-09-02T09:07:06.303Z,18848
2016-09-02T09:08:07.033Z,19264
2016-09-02T09:09:04.907Z,18880
2016-09-02T09:10:05.769Z,18880
2016-09-02T09:11:05.762Z,18944
2016-09-02T09:12:06.543Z,18272
2016-09-02T09:13:05.742Z,17600
2016-09-02T09:14:06.605Z,16960
2016-09-02T09:15:05.495Z,16192
2016-09-02T09:16:05.131Z,16128
2016-09-02T09:17:05.854Z,15808
2016-09-02T09:18:06.642Z,15328
2016-09-02T09:19:07.324Z,14468
2016-09-02T09:20:06.703Z,14028
2016-09-02T09:21:06.658Z,14016
2016-09-02T09:22:06.721Z,13692
2016-09-02T09:23:06.031Z,13284
2016-09-02T09:24:06.055Z,12540
2016-09-02T09:25:06.090Z,11552
2016-09-02T09:26:06.805Z,10488
2016-09-02T09:27:06.137Z,9692
2016-09-02T09:28:07.570Z,9224
2016-09-02T09:29:05.480Z,9040
2016-09-02T09:30:06.445Z,9052
2016-09-02T09:31:06.920Z,9296
2016-09-02T09:32:06.281Z,9428
2016-09-02T09:33:07.005Z,9832
2016-09-02T09:34:06.328Z,10352
2016-09-02T09:35:05.648Z,11064
2016-09-02T09:36:07.224Z,11368
2016-09-02T09:37:07.200Z,11820
2016-09-02T09:38:05.743Z,11668
2016-09-02T09:39:05.832Z,11772
2016-09-02T09:40:07.222Z,12144
2016-09-02T09:41:06.525Z,12280
2016-09-02T09:42:05.842Z,12000
2016-09-02T09:43:07.363Z,11564
2016-09-02T09:44:07.298Z,11828
2016-09-02T09:45:06.643Z,12140
2016-09-02T09:46:08.071Z,12556
2016-09-02T09:47:07.404Z,13628
2016-09-02T09:48:07.431Z,14904
2016-09-02T09:49:07.490Z,15240
2016-09-02T09:50:07.101Z,15176
2016-09-02T09:51:08.230Z,15256
2016-09-02T09:52:07.638Z,15156
2016-09-02T09:53:06.141Z,15172
2016-09-02T09:54:07.671Z,15308
2016-09-02T09:55:06.911Z,15968
2016-09-02T09:56:06.227Z,16448
2016-09-02T09:57:06.971Z,16928
2016-09-02T09:58:06.990Z,16960
2016-09-02T09:59:07.728Z,17184
2016-09-02T10:00:07.052Z,17472
2016-09-02T10:01:06.479Z,17664
2016-09-02T10:02:07.961Z,17760
2016-09-02T10:03:08.535Z,17920
2016-09-02T10:04:07.969Z,18240
2016-09-02T10:05:07.322Z,18144
2016-09-02T10:06:06.510Z,18016
2016-09-02T10:07:07.298Z,17600
2016-09-02T10:08:06.650Z,17664
2016-09-02T10:09:08.000Z,17984
2016-09-02T10:10:08.071Z,17888
2016-09-02T10:11:06.722Z,17504
2016-09-02T10:12:08.072Z,17248
2016-09-02T10:13:07.412Z,17184
2016-09-02T10:14:07.445Z,16736
2016-09-02T10:15:07.475Z,16704
2016-09-02T10:16:07.547Z,16416
2016-09-02T10:17:08.231Z,16576
2016-09-02T10:18:08.276Z,16256
2016-09-02T10:19:06.950Z,16224
2016-09-02T10:20:09.218Z,16640
2016-09-02T10:21:08.343Z,15872
2016-09-02T10:22:07.655Z,15400
2016-09-02T10:23:08.407Z,15840
2016-09-02T10:24:07.723Z,16032
2016-09-02T10:25:07.893Z,16128
2016-09-02T10:26:09.201Z,16416
2016-09-02T10:27:08.511Z,16800
2016-09-02T10:28:07.827Z,17376
2016-09-02T10:29:07.857Z,17248
2016-09-02T10:30:07.913Z,17216
2016-09-02T10:31:07.210Z,17568
2016-09-02T10:32:08.154Z,17920
2016-09-02T10:33:08.680Z,18048
2016-09-02T10:34:08.124Z,18144
2016-09-02T10:35:08.743Z,18208
2016-09-02T10:36:09.491Z,18304
2016-09-02T10:37:08.792Z,18464
2016-09-02T10:38:09.672Z,18688
2016-09-02T10:39:08.150Z,18816
2016-09-02T10:40:09.688Z,18784
2016-09-02T10:41:09.606Z,18752
2016-09-02T10:42:08.222Z,19040
2016-09-02T10:43:08.436Z,19328
2016-09-02T10:44:09.000Z,18912
2016-09-02T10:45:07.618Z,18624
2016-09-02T10:46:08.333Z,18112
2016-09-02T10:47:09.096Z,17600
2016-09-02T10:48:08.433Z,16768
2016-09-02T10:49:09.853Z,16288
2016-09-02T10:50:07.770Z,15576
2016-09-02T10:51:08.520Z,15032
2016-09-02T10:52:08.548Z,14588
2016-09-02T10:53:08.582Z,14504
2016-09-02T10:54:08.708Z,14752
2016-09-02T10:55:08.614Z,15188
2016-09-02T10:56:08.678Z,16512
2016-09-02T10:57:10.087Z,16032
2016-09-02T10:58:09.499Z,16672
2016-09-02T10:59:10.143Z,15516
2016-09-02T11:00:09.404Z,15584
2016-09-02T11:01:09.503Z,16320
2016-09-02T11:02:08.102Z,16480
2016-09-02T11:03:09.549Z,16512
2016-09-02T11:04:09.582Z,16640
2016-09-02T11:05:09.621Z,16544
2016-09-02T11:06:08.942Z,15284
2016-09-02T11:07:09.796Z,14652
2016-09-02T11:08:09.002Z,14584
2016-09-02T11:09:09.022Z,14824
2016-09-02T11:10:10.471Z,15000
2016-09-02T11:11:09.781Z,15272
2016-09-02T11:12:08.541Z,15520
2016-09-02T11:13:09.133Z,15556
2016-09-02T11:14:09.872Z,15544
2016-09-02T11:15:09.904Z,15520
2016-09-02T11:16:08.594Z,15380
2016-09-02T11:17:09.244Z,15388
2016-09-02T11:18:09.299Z,15280
2016-09-02T11:19:10.021Z,15264
2016-09-02T11:20:09.374Z,14664
2016-09-02T11:21:09.381Z,14224
2016-09-02T11:22:09.427Z,14340
2016-09-02T11:23:09.446Z,14120
2016-09-02T11:24:10.992Z,14076
2016-09-02T11:25:09.480Z,13812
2016-09-02T11:26:10.213Z,13320
2016-09-02T11:27:10.973Z,13008
2016-09-02T11:28:11.015Z,13080
2016-09-02T11:29:09.702Z,13016
2016-09-02T11:30:10.332Z,12852
2016-09-02T11:31:10.433Z,12500
2016-09-02T11:32:09.104Z,12324
2016-09-02T11:33:09.724Z,12160
2016-09-02T11:34:10.457Z,11828
2016-09-02T11:35:12.334Z,11704
2016-09-02T11:36:11.371Z,11884
2016-09-02T11:37:09.129Z,12356
2016-09-02T11:38:09.878Z,13084
2016-09-02T11:39:09.276Z,13812
2016-09-02T11:40:11.624Z,14496
2016-09-02T11:41:10.648Z,14808
2016-09-02T11:42:09.982Z,15420
2016-09-02T11:43:10.749Z,15936
2016-09-02T11:44:09.339Z,15124
2016-09-02T11:45:10.785Z,14352
2016-09-02T11:46:10.162Z,13996
2016-09-02T11:47:10.856Z,13552
2016-09-02T11:48:11.588Z,12336
2016-09-02T11:49:10.189Z,11328
2016-09-02T11:50:11.053Z,10600
2016-09-02T11:51:10.263Z,10484
2016-09-02T11:52:09.577Z,9772
2016-09-02T11:53:11.725Z,9348
2016-09-02T11:54:10.343Z,9268
2016-09-02T11:55:11.207Z,10108
2016-09-02T11:56:10.435Z,9540
2016-09-02T11:57:11.355Z,9916
2016-09-02T11:58:11.150Z,10112
2016-09-02T11:59:10.504Z,9832
2016-09-02T12:00:11.211Z,9880
2016-09-02T12:01:09.813Z,9396
2016-09-02T12:02:10.552Z,9032
2016-09-02T12:03:10.992Z,8632
2016-09-02T12:04:12.032Z,8600
2016-09-02T12:05:10.990Z,8784
2016-09-02T12:06:12.089Z,9864
2016-09-02T12:07:11.411Z,11116
2016-09-02T12:08:10.086Z,12608
2016-09-02T12:09:11.514Z,13760
2016-09-02T12:10:10.862Z,13804
2016-09-02T12:11:10.810Z,13176
2016-09-02T12:12:11.564Z,11980
2016-09-02T12:13:12.387Z,10788
2016-09-02T12:14:11.611Z,10652
2016-09-02T12:15:11.635Z,11212
2016-09-02T12:16:12.377Z,11428
2016-09-02T12:17:10.984Z,11876
2016-09-02T12:18:11.802Z,11328
2016-09-02T12:19:11.043Z,11056
2016-09-02T12:20:11.894Z,11500
2016-09-02T12:21:11.103Z,11228
2016-09-02T12:22:12.552Z,11844
2016-09-02T12:23:11.272Z,12532
2016-09-02T12:24:11.896Z,12504
2016-09-02T12:25:11.264Z,12776
2016-09-02T12:26:12.710Z,12668
2016-09-02T12:27:11.350Z,12464
2016-09-02T12:28:11.292Z,12264
2016-09-02T12:29:11.337Z,11560
2016-09-02T12:30:13.529Z,10664
2016-09-02T12:31:13.042Z,10000
2016-09-02T12:32:12.843Z,9580
2016-09-02T12:33:11.432Z,9172
2016-09-02T12:34:12.880Z,8668
2016-09-02T12:35:11.508Z,8580
2016-09-02T12:36:12.925Z,8628
2016-09-02T12:37:11.835Z,8484
2016-09-02T12:38:13.045Z,8308
2016-09-02T12:39:11.712Z,8288
2016-09-02T12:40:12.414Z,8384
2016-09-02T12:41:12.372Z,8540
2016-09-02T12:42:10.995Z,8676
2016-09-02T12:43:12.415Z,8948
2016-09-02T12:44:11.882Z,9096
2016-09-02T12:45:12.882Z,9436
2016-09-02T12:46:13.220Z,9340
2016-09-02T12:47:11.972Z,9260
2016-09-02T12:48:12.674Z,9148
2016-09-02T12:49:12.693Z,8932
2016-09-02T12:50:12.742Z,8924
2016-09-02T12:51:11.953Z,9020
2016-09-02T12:52:12.711Z,9040
2016-09-02T12:53:13.533Z,9252
2016-09-02T12:54:12.764Z,9596
2016-09-02T12:55:11.441Z,9572
2016-09-02T12:56:12.187Z,9496
2016-09-02T12:57:12.106Z,9476
2016-09-02T12:58:12.138Z,9524
2016-09-02T12:59:12.887Z,9648
2016-09-02T13:00:13.023Z,9852
2016-09-02T13:01:13.647Z,10076
2016-09-02T13:02:13.042Z,10416
2016-09-02T13:03:12.979Z,10764
2016-09-02T13:04:13.087Z,11112
2016-09-02T13:05:12.360Z,11380
2016-09-02T13:06:13.062Z,11636
2016-09-02T13:07:11.771Z,11844
2016-09-02T13:08:12.606Z,11964
2016-09-02T13:09:12.444Z,12168
2016-09-02T13:10:13.257Z,12416
2016-09-02T13:11:13.223Z,12644
2016-09-02T13:12:13.261Z,12816
2016-09-02T13:13:14.033Z,13080
2016-09-02T13:14:13.313Z,13200
2016-09-02T13:15:12.643Z,13220
2016-09-02T13:16:13.376Z,13212
2016-09-02T13:17:13.421Z,13120
2016-09-02T13:18:14.153Z,13024
2016-09-02T13:19:12.763Z,13064
2016-09-02T13:20:13.518Z,12776
2016-09-02T13:21:12.199Z,12700
2016-09-02T13:22:13.510Z,12732
2016-09-02T13:23:13.555Z,12976
2016-09-02T13:24:12.973Z,13236
2016-09-02T13:25:13.015Z,13596
2016-09-02T13:26:12.944Z,14044
2016-09-02T13:27:13.063Z,14412
2016-09-02T13:28:13.745Z,14992
2016-09-02T13:29:12.320Z,15164
2016-09-02T13:30:13.804Z,14584
2016-09-02T13:31:13.789Z,14016
2016-09-02T13:32:14.548Z,13656
2016-09-02T13:33:13.910Z,13232